sensor_id;sensor_type;location;lat;lon;timestamp;temperature;humidity
13616;DHT22;6879;51.368;6.782;2022-11-30T00:01:20;7.70;99.90
13616;DHT22;6879;51.368;6.782;2022-11-30T00:03:52;7.70;99.90
13616;DHT22;6879;51.368;6.782;2022-11-30T00:06:21;7.70;99.90
13616;DHT22;6879;51.368;6.782;2022-11-30T00:08:51;7.70;99.90
13616;DHT22;6879;51.368;6.782;2022-11-30T00:11:21;7.70;99.90
13616;DHT22;6879;51.368;6.782;2022-11-30T00:13:52;7.70;99.90
13616;DHT22;6879;51.368;6.782;2022-11-30T00:16:21;7.70;99.90
13616;DHT22;6879;51.368;6.782;2022-11-30T00:18:50;7.70;99.90
13616;DHT22;6879;51.368;6.782;2022-11-30T00:21:18;7.70;99.90
13616;DHT22;6879;51.368;6.782;2022-11-30T00:23:47;7.80;99.90
13616;DHT22;6879;51.368;6.782;2022-11-30T00:26:17;7.70;99.90
13616;DHT22;6879;51.368;6.782;2022-11-30T00:28:48;7.80;99.90
13616;DHT22;6879;51.368;6.782;2022-11-30T00:31:18;7.70;99.90
13616;DHT22;6879;51.368;6.782;2022-11-30T00:33:47;7.80;99.90
13616;DHT22;6879;51.368;6.782;2022-11-30T00:36:17;7.70;99.90
13616;DHT22;6879;51.368;6.782;2022-11-30T00:38:46;7.70;99.90
13616;DHT22;6879;51.368;6.782;2022-11-30T00:41:15;7.70;99.90
13616;DHT22;6879;51.368;6.782;2022-11-30T00:43:45;7.80;99.90
13616;DHT22;6879;51.368;6.782;2022-11-30T00:46:13;7.80;99.90
13616;DHT22;6879;51.368;6.782;2022-11-30T00:48:43;7.80;99.90
13616;DHT22;6879;51.368;6.782;2022-11-30T00:51:12;7.80;99.90
13616;DHT22;6879;51.368;6.782;2022-11-30T00:53:41;7.70;99.90
13616;DHT22;6879;51.368;6.782;2022-11-30T00:56:10;7.80;99.90
13616;DHT22;6879;51.368;6.782;2022-11-30T00:58:38;7.70;99.90
13616;DHT22;6879;51.368;6.782;2022-11-30T01:01:07;7.80;99.90
13616;DHT22;6879;51.368;6.782;2022-11-30T01:03:36;7.80;99.90
13616;DHT22;6879;51.368;6.782;2022-11-30T01:06:07;7.70;99.90
13616;DHT22;6879;51.368;6.782;2022-11-30T01:08:36;7.90;99.90
13616;DHT22;6879;51.368;6.782;2022-11-30T01:11:09;7.90;99.90
13616;DHT22;6879;51.368;6.782;2022-11-30T01:13:38;7.80;99.90
13616;DHT22;6879;51.368;6.782;2022-11-30T01:16:09;7.80;99.90
13616;DHT22;6879;51.368;6.782;2022-11-30T01:18:38;7.90;99.90
13616;DHT22;6879;51.368;6.782;2022-11-30T01:21:09;7.80;99.90
13616;DHT22;6879;51.368;6.782;2022-11-30T01:23:39;7.80;99.90
13616;DHT22;6879;51.368;6.782;2022-11-30T01:26:09;7.80;99.90
13616;DHT22;6879;51.368;6.782;2022-11-30T01:28:37;7.80;99.90
13616;DHT22;6879;51.368;6.782;2022-11-30T01:31:09;7.80;99.90
13616;DHT22;6879;51.368;6.782;2022-11-30T01:33:39;7.80;99.90
13616;DHT22;6879;51.368;6.782;2022-11-30T01:36:12;7.90;99.90
13616;DHT22;6879;51.368;6.782;2022-11-30T01:38:42;7.90;99.90
13616;DHT22;6879;51.368;6.782;2022-11-30T01:41:14;7.90;99.90
13616;DHT22;6879;51.368;6.782;2022-11-30T01:43:46;8.00;99.90
13616;DHT22;6879;51.368;6.782;2022-11-30T01:46:23;7.90;99.90
13616;DHT22;6879;51.368;6.782;2022-11-30T01:49:01;7.90;99.90
13616;DHT22;6879;51.368;6.782;2022-11-30T01:51:35;7.90;99.90
13616;DHT22;6879;51.368;6.782;2022-11-30T01:54:10;7.80;99.90
13616;DHT22;6879;51.368;6.782;2022-11-30T01:56:42;7.90;99.90
13616;DHT22;6879;51.368;6.782;2022-11-30T01:59:12;7.90;99.90
13616;DHT22;6879;51.368;6.782;2022-11-30T02:01:42;7.90;99.90
13616;DHT22;6879;51.368;6.782;2022-11-30T02:04:15;7.90;99.90
13616;DHT22;6879;51.368;6.782;2022-11-30T02:06:46;8.00;99.90
13616;DHT22;6879;51.368;6.782;2022-11-30T02:09:18;7.90;99.90
13616;DHT22;6879;51.368;6.782;2022-11-30T02:11:48;7.90;99.90
13616;DHT22;6879;51.368;6.782;2022-11-30T02:14:27;7.90;99.90
13616;DHT22;6879;51.368;6.782;2022-11-30T02:17:05;7.90;99.90
13616;DHT22;6879;51.368;6.782;2022-11-30T02:20:22;8.00;99.90
13616;DHT22;6879;51.368;6.782;2022-11-30T02:23:18;8.00;99.90
13616;DHT22;6879;51.368;6.782;2022-11-30T02:25:55;7.90;99.90
13616;DHT22;6879;51.368;6.782;2022-11-30T02:28:44;7.90;99.90
13616;DHT22;6879;51.368;6.782;2022-11-30T02:31:19;7.90;99.90
13616;DHT22;6879;51.368;6.782;2022-11-30T02:33:50;7.80;99.90
13616;DHT22;6879;51.368;6.782;2022-11-30T02:36:20;7.80;99.90
13616;DHT22;6879;51.368;6.782;2022-11-30T02:38:50;7.80;99.90
13616;DHT22;6879;51.368;6.782;2022-11-30T02:41:19;7.80;99.90
13616;DHT22;6879;51.368;6.782;2022-11-30T02:43:53;7.80;99.90
13616;DHT22;6879;51.368;6.782;2022-11-30T02:46:36;7.80;99.90
13616;DHT22;6879;51.368;6.782;2022-11-30T02:49:15;7.80;99.90
13616;DHT22;6879;51.368;6.782;2022-11-30T02:51:45;7.80;99.90
13616;DHT22;6879;51.368;6.782;2022-11-30T02:54:15;7.90;99.90
13616;DHT22;6879;51.368;6.782;2022-11-30T02:56:45;7.80;99.90
13616;DHT22;6879;51.368;6.782;2022-11-30T02:59:15;7.90;99.90
13616;DHT22;6879;51.368;6.782;2022-11-30T03:01:44;7.90;99.90
13616;DHT22;6879;51.368;6.782;2022-11-30T03:04:16;7.90;99.90
13616;DHT22;6879;51.368;6.782;2022-11-30T03:06:45;7.90;99.90
13616;DHT22;6879;51.368;6.782;2022-11-30T03:09:13;7.80;99.90
13616;DHT22;6879;51.368;6.782;2022-11-30T03:11:42;7.80;99.90
13616;DHT22;6879;51.368;6.782;2022-11-30T03:14:11;7.80;99.90
13616;DHT22;6879;51.368;6.782;2022-11-30T03:16:41;7.80;99.90
13616;DHT22;6879;51.368;6.782;2022-11-30T03:19:10;7.70;99.90
13616;DHT22;6879;51.368;6.782;2022-11-30T03:21:40;7.60;99.90
13616;DHT22;6879;51.368;6.782;2022-11-30T03:24:09;7.50;99.90
13616;DHT22;6879;51.368;6.782;2022-11-30T03:26:37;7.50;99.90
13616;DHT22;6879;51.368;6.782;2022-11-30T03:29:06;7.50;99.90
13616;DHT22;6879;51.368;6.782;2022-11-30T03:31:35;7.50;99.90
13616;DHT22;6879;51.368;6.782;2022-11-30T03:34:06;7.40;99.90
13616;DHT22;6879;51.368;6.782;2022-11-30T03:36:35;7.40;99.90
13616;DHT22;6879;51.368;6.782;2022-11-30T03:39:08;7.40;99.90
13616;DHT22;6879;51.368;6.782;2022-11-30T03:41:40;7.40;99.90
13616;DHT22;6879;51.368;6.782;2022-11-30T03:44:09;7.40;99.90
13616;DHT22;6879;51.368;6.782;2022-11-30T03:46:47;7.30;99.90
13616;DHT22;6879;51.368;6.782;2022-11-30T03:49:18;7.40;99.90
13616;DHT22;6879;51.368;6.782;2022-11-30T03:51:47;7.40;99.90
13616;DHT22;6879;51.368;6.782;2022-11-30T03:54:16;7.40;99.90
13616;DHT22;6879;51.368;6.782;2022-11-30T03:56:45;7.30;99.90
13616;DHT22;6879;51.368;6.782;2022-11-30T03:59:17;7.30;99.90
13616;DHT22;6879;51.368;6.782;2022-11-30T04:01:46;7.20;99.90
13616;DHT22;6879;51.368;6.782;2022-11-30T04:04:15;7.10;99.90
13616;DHT22;6879;51.368;6.782;2022-11-30T04:06:45;7.10;99.90
13616;DHT22;6879;51.368;6.782;2022-11-30T04:09:14;7.00;99.90
13616;DHT22;6879;51.368;6.782;2022-11-30T04:11:42;7.10;99.90
13616;DHT22;6879;51.368;6.782;2022-11-30T04:14:12;7.10;99.90
13616;DHT22;6879;51.368;6.782;2022-11-30T04:16:41;7.00;99.90
13616;DHT22;6879;51.368;6.782;2022-11-30T04:19:10;7.00;99.90
13616;DHT22;6879;51.368;6.782;2022-11-30T04:21:39;7.00;99.90
13616;DHT22;6879;51.368;6.782;2022-11-30T04:24:09;6.90;99.90
13616;DHT22;6879;51.368;6.782;2022-11-30T04:26:52;6.90;99.90
13616;DHT22;6879;51.368;6.782;2022-11-30T04:33:56;7.00;99.90
13616;DHT22;6879;51.368;6.782;2022-11-30T04:36:43;7.00;99.90
13616;DHT22;6879;51.368;6.782;2022-11-30T04:39:14;7.00;99.90
13616;DHT22;6879;51.368;6.782;2022-11-30T04:41:42;7.00;99.90
13616;DHT22;6879;51.368;6.782;2022-11-30T04:44:11;7.00;99.90
13616;DHT22;6879;51.368;6.782;2022-11-30T04:46:40;7.00;99.90
13616;DHT22;6879;51.368;6.782;2022-11-30T04:49:08;7.10;99.90
13616;DHT22;6879;51.368;6.782;2022-11-30T04:51:37;7.10;99.90
13616;DHT22;6879;51.368;6.782;2022-11-30T04:54:05;7.20;99.90
13616;DHT22;6879;51.368;6.782;2022-11-30T04:56:36;7.10;99.90
13616;DHT22;6879;51.368;6.782;2022-11-30T04:59:08;7.10;99.90
13616;DHT22;6879;51.368;6.782;2022-11-30T05:01:44;7.10;99.90
13616;DHT22;6879;51.368;6.782;2022-11-30T05:04:15;7.10;99.90
13616;DHT22;6879;51.368;6.782;2022-11-30T05:06:47;7.10;99.90
13616;DHT22;6879;51.368;6.782;2022-11-30T05:09:18;7.10;99.90
13616;DHT22;6879;51.368;6.782;2022-11-30T05:11:52;7.10;99.90
13616;DHT22;6879;51.368;6.782;2022-11-30T05:14:21;7.10;99.90
13616;DHT22;6879;51.368;6.782;2022-11-30T05:16:50;7.10;99.90
13616;DHT22;6879;51.368;6.782;2022-11-30T05:19:19;7.00;99.90
13616;DHT22;6879;51.368;6.782;2022-11-30T05:21:48;7.00;99.90
13616;DHT22;6879;51.368;6.782;2022-11-30T05:24:18;7.00;99.90
13616;DHT22;6879;51.368;6.782;2022-11-30T05:26:46;6.90;99.90
13616;DHT22;6879;51.368;6.782;2022-11-30T05:29:19;6.80;99.90
13616;DHT22;6879;51.368;6.782;2022-11-30T05:31:48;6.80;99.90
13616;DHT22;6879;51.368;6.782;2022-11-30T05:34:18;6.70;99.90
13616;DHT22;6879;51.368;6.782;2022-11-30T05:36:49;6.60;99.90
13616;DHT22;6879;51.368;6.782;2022-11-30T05:39:18;6.80;99.90
13616;DHT22;6879;51.368;6.782;2022-11-30T05:41:46;6.70;99.90
13616;DHT22;6879;51.368;6.782;2022-11-30T05:44:15;6.80;99.90
13616;DHT22;6879;51.368;6.782;2022-11-30T05:46:45;6.80;99.90
13616;DHT22;6879;51.368;6.782;2022-11-30T05:49:14;6.90;99.90
13616;DHT22;6879;51.368;6.782;2022-11-30T05:51:43;6.90;99.90
13616;DHT22;6879;51.368;6.782;2022-11-30T05:54:11;6.80;99.90
13616;DHT22;6879;51.368;6.782;2022-11-30T05:56:39;6.90;99.90
13616;DHT22;6879;51.368;6.782;2022-11-30T05:59:09;6.90;99.90
13616;DHT22;6879;51.368;6.782;2022-11-30T06:01:38;6.80;99.90
13616;DHT22;6879;51.368;6.782;2022-11-30T06:04:08;6.80;99.90
13616;DHT22;6879;51.368;6.782;2022-11-30T06:06:36;6.90;99.90
13616;DHT22;6879;51.368;6.782;2022-11-30T06:09:05;6.90;99.90
13616;DHT22;6879;51.368;6.782;2022-11-30T06:11:33;6.80;99.90
13616;DHT22;6879;51.368;6.782;2022-11-30T06:14:02;6.80;99.90
13616;DHT22;6879;51.368;6.782;2022-11-30T06:16:30;6.60;99.90
13616;DHT22;6879;51.368;6.782;2022-11-30T06:18:59;6.60;99.90
13616;DHT22;6879;51.368;6.782;2022-11-30T06:21:29;6.60;99.90
13616;DHT22;6879;51.368;6.782;2022-11-30T06:23:58;6.50;99.90
13616;DHT22;6879;51.368;6.782;2022-11-30T06:26:26;6.60;99.90
13616;DHT22;6879;51.368;6.782;2022-11-30T06:28:55;6.50;99.90
13616;DHT22;6879;51.368;6.782;2022-11-30T06:31:23;6.40;99.90
13616;DHT22;6879;51.368;6.782;2022-11-30T06:33:57;6.60;99.90
13616;DHT22;6879;51.368;6.782;2022-11-30T06:36:28;6.50;99.90
13616;DHT22;6879;51.368;6.782;2022-11-30T06:39:02;6.60;99.90
13616;DHT22;6879;51.368;6.782;2022-11-30T06:41:30;6.80;99.90
13616;DHT22;6879;51.368;6.782;2022-11-30T06:43:59;6.80;99.90
13616;DHT22;6879;51.368;6.782;2022-11-30T06:46:28;6.80;99.90
13616;DHT22;6879;51.368;6.782;2022-11-30T06:48:56;6.90;99.90
13616;DHT22;6879;51.368;6.782;2022-11-30T06:51:25;7.00;99.90
13616;DHT22;6879;51.368;6.782;2022-11-30T06:53:55;7.00;99.90
13616;DHT22;6879;51.368;6.782;2022-11-30T06:56:23;7.00;99.90
13616;DHT22;6879;51.368;6.782;2022-11-30T06:58:52;6.90;99.90
13616;DHT22;6879;51.368;6.782;2022-11-30T07:01:20;7.00;99.90
13616;DHT22;6879;51.368;6.782;2022-11-30T07:03:49;7.00;99.90
13616;DHT22;6879;51.368;6.782;2022-11-30T07:06:18;7.00;99.90
13616;DHT22;6879;51.368;6.782;2022-11-30T07:08:46;7.00;99.90
13616;DHT22;6879;51.368;6.782;2022-11-30T07:11:17;7.00;99.90
13616;DHT22;6879;51.368;6.782;2022-11-30T07:13:45;7.00;99.90
13616;DHT22;6879;51.368;6.782;2022-11-30T07:16:14;7.00;99.90
13616;DHT22;6879;51.368;6.782;2022-11-30T07:18:42;7.00;99.90
13616;DHT22;6879;51.368;6.782;2022-11-30T07:21:11;7.00;99.90
13616;DHT22;6879;51.368;6.782;2022-11-30T07:23:39;7.00;99.90
13616;DHT22;6879;51.368;6.782;2022-11-30T07:26:26;7.00;99.90
13616;DHT22;6879;51.368;6.782;2022-11-30T07:28:55;7.00;99.90
13616;DHT22;6879;51.368;6.782;2022-11-30T07:31:25;7.00;99.90
13616;DHT22;6879;51.368;6.782;2022-11-30T07:33:55;7.10;99.90
13616;DHT22;6879;51.368;6.782;2022-11-30T07:36:25;7.10;99.90
13616;DHT22;6879;51.368;6.782;2022-11-30T07:38:55;7.10;99.90
13616;DHT22;6879;51.368;6.782;2022-11-30T07:41:25;7.10;99.90
13616;DHT22;6879;51.368;6.782;2022-11-30T07:43:54;7.10;99.90
13616;DHT22;6879;51.368;6.782;2022-11-30T07:46:23;7.10;99.90
13616;DHT22;6879;51.368;6.782;2022-11-30T07:48:51;7.10;99.90
13616;DHT22;6879;51.368;6.782;2022-11-30T07:51:21;7.00;99.90
13616;DHT22;6879;51.368;6.782;2022-11-30T07:53:49;7.10;99.90
13616;DHT22;6879;51.368;6.782;2022-11-30T07:56:19;7.10;99.90
13616;DHT22;6879;51.368;6.782;2022-11-30T07:58:52;7.20;99.90
13616;DHT22;6879;51.368;6.782;2022-11-30T08:01:22;7.30;99.90
13616;DHT22;6879;51.368;6.782;2022-11-30T08:03:51;7.20;99.90
13616;DHT22;6879;51.368;6.782;2022-11-30T08:06:21;7.30;99.90
13616;DHT22;6879;51.368;6.782;2022-11-30T08:08:52;7.30;99.90
13616;DHT22;6879;51.368;6.782;2022-11-30T08:11:23;7.30;99.90
13616;DHT22;6879;51.368;6.782;2022-11-30T08:13:53;7.30;99.90
13616;DHT22;6879;51.368;6.782;2022-11-30T08:16:24;7.30;99.90
13616;DHT22;6879;51.368;6.782;2022-11-30T08:18:54;7.30;99.90
13616;DHT22;6879;51.368;6.782;2022-11-30T08:21:23;7.10;99.90
13616;DHT22;6879;51.368;6.782;2022-11-30T08:23:53;7.10;99.90
13616;DHT22;6879;51.368;6.782;2022-11-30T08:26:24;7.00;99.90
13616;DHT22;6879;51.368;6.782;2022-11-30T08:28:56;7.00;99.90
13616;DHT22;6879;51.368;6.782;2022-11-30T08:31:26;7.00;99.90
13616;DHT22;6879;51.368;6.782;2022-11-30T08:33:56;7.10;99.90
13616;DHT22;6879;51.368;6.782;2022-11-30T08:36:26;7.00;99.90
13616;DHT22;6879;51.368;6.782;2022-11-30T08:38:56;7.10;99.90
13616;DHT22;6879;51.368;6.782;2022-11-30T08:41:25;7.10;99.90
13616;DHT22;6879;51.368;6.782;2022-11-30T08:43:55;7.00;99.90
13616;DHT22;6879;51.368;6.782;2022-11-30T08:46:24;7.00;99.90
13616;DHT22;6879;51.368;6.782;2022-11-30T08:49:12;7.00;99.90
13616;DHT22;6879;51.368;6.782;2022-11-30T08:51:51;7.00;99.90
13616;DHT22;6879;51.368;6.782;2022-11-30T08:54:41;7.00;99.90
13616;DHT22;6879;51.368;6.782;2022-11-30T08:57:12;6.90;99.90
13616;DHT22;6879;51.368;6.782;2022-11-30T08:59:42;6.90;99.90
13616;DHT22;6879;51.368;6.782;2022-11-30T09:02:11;6.80;99.90
13616;DHT22;6879;51.368;6.782;2022-11-30T09:04:43;6.80;99.90
13616;DHT22;6879;51.368;6.782;2022-11-30T09:07:11;6.80;99.90
13616;DHT22;6879;51.368;6.782;2022-11-30T09:09:40;6.80;99.90
13616;DHT22;6879;51.368;6.782;2022-11-30T09:12:08;6.80;99.90
13616;DHT22;6879;51.368;6.782;2022-11-30T09:14:37;6.80;99.90
13616;DHT22;6879;51.368;6.782;2022-11-30T09:17:06;6.80;99.90
13616;DHT22;6879;51.368;6.782;2022-11-30T09:19:35;6.80;99.90
13616;DHT22;6879;51.368;6.782;2022-11-30T09:22:03;6.80;99.90
13616;DHT22;6879;51.368;6.782;2022-11-30T09:24:32;6.80;99.90
13616;DHT22;6879;51.368;6.782;2022-11-30T09:27:00;6.90;99.90
13616;DHT22;6879;51.368;6.782;2022-11-30T09:29:29;6.90;99.90
13616;DHT22;6879;51.368;6.782;2022-11-30T09:31:57;6.90;99.90
13616;DHT22;6879;51.368;6.782;2022-11-30T09:34:27;7.00;99.90
13616;DHT22;6879;51.368;6.782;2022-11-30T09:36:55;7.00;99.90
13616;DHT22;6879;51.368;6.782;2022-11-30T09:39:24;7.00;99.90
13616;DHT22;6879;51.368;6.782;2022-11-30T09:42:19;7.00;99.90
13616;DHT22;6879;51.368;6.782;2022-11-30T09:44:59;7.00;99.90
13616;DHT22;6879;51.368;6.782;2022-11-30T09:47:41;7.00;99.90
13616;DHT22;6879;51.368;6.782;2022-11-30T09:50:17;7.10;99.90
13616;DHT22;6879;51.368;6.782;2022-11-30T09:52:49;7.10;99.90
13616;DHT22;6879;51.368;6.782;2022-11-30T09:55:24;7.10;99.90
13616;DHT22;6879;51.368;6.782;2022-11-30T09:57:55;7.10;99.90
13616;DHT22;6879;51.368;6.782;2022-11-30T10:03:44;7.10;99.90
13616;DHT22;6879;51.368;6.782;2022-11-30T10:06:20;7.20;99.90
13616;DHT22;6879;51.368;6.782;2022-11-30T10:09:22;7.20;99.90
13616;DHT22;6879;51.368;6.782;2022-11-30T10:11:59;7.20;99.90
13616;DHT22;6879;51.368;6.782;2022-11-30T10:15:02;7.30;99.90
13616;DHT22;6879;51.368;6.782;2022-11-30T10:17:40;7.20;99.90
13616;DHT22;6879;51.368;6.782;2022-11-30T10:23:18;7.20;99.90
13616;DHT22;6879;51.368;6.782;2022-11-30T10:25:54;7.20;99.90
13616;DHT22;6879;51.368;6.782;2022-11-30T10:28:33;7.20;99.90
13616;DHT22;6879;51.368;6.782;2022-11-30T10:31:14;7.30;99.90
13616;DHT22;6879;51.368;6.782;2022-11-30T10:33:46;7.40;99.90
13616;DHT22;6879;51.368;6.782;2022-11-30T10:36:19;7.30;99.90
13616;DHT22;6879;51.368;6.782;2022-11-30T10:38:55;7.20;99.90
13616;DHT22;6879;51.368;6.782;2022-11-30T10:41:29;7.20;99.90
13616;DHT22;6879;51.368;6.782;2022-11-30T10:44:04;7.30;99.90
13616;DHT22;6879;51.368;6.782;2022-11-30T10:46:37;7.30;99.90
13616;DHT22;6879;51.368;6.782;2022-11-30T10:49:11;7.30;99.90
13616;DHT22;6879;51.368;6.782;2022-11-30T10:51:44;7.30;99.90
13616;DHT22;6879;51.368;6.782;2022-11-30T10:54:19;7.30;99.90
13616;DHT22;6879;51.368;6.782;2022-11-30T10:56:48;7.30;99.90
13616;DHT22;6879;51.368;6.782;2022-11-30T10:59:20;7.40;99.90
13616;DHT22;6879;51.368;6.782;2022-11-30T11:01:50;7.40;99.90
13616;DHT22;6879;51.368;6.782;2022-11-30T11:04:21;7.40;99.90
13616;DHT22;6879;51.368;6.782;2022-11-30T11:06:51;7.40;99.90
13616;DHT22;6879;51.368;6.782;2022-11-30T11:09:34;7.40;99.90
13616;DHT22;6879;51.368;6.782;2022-11-30T11:12:05;7.50;99.90
13616;DHT22;6879;51.368;6.782;2022-11-30T11:14:41;7.50;99.90
13616;DHT22;6879;51.368;6.782;2022-11-30T11:17:21;7.60;99.90
13616;DHT22;6879;51.368;6.782;2022-11-30T11:19:52;7.60;99.90
13616;DHT22;6879;51.368;6.782;2022-11-30T11:22:21;7.70;99.90
13616;DHT22;6879;51.368;6.782;2022-11-30T11:24:53;7.70;99.90
13616;DHT22;6879;51.368;6.782;2022-11-30T11:27:25;7.70;99.90
13616;DHT22;6879;51.368;6.782;2022-11-30T11:30:04;7.70;99.90
13616;DHT22;6879;51.368;6.782;2022-11-30T11:32:34;7.80;99.90
13616;DHT22;6879;51.368;6.782;2022-11-30T11:35:04;7.80;99.90
13616;DHT22;6879;51.368;6.782;2022-11-30T11:37:51;7.70;99.90
13616;DHT22;6879;51.368;6.782;2022-11-30T11:40:22;7.70;99.90
13616;DHT22;6879;51.368;6.782;2022-11-30T11:42:52;7.60;99.90
13616;DHT22;6879;51.368;6.782;2022-11-30T11:45:22;7.60;99.90
13616;DHT22;6879;51.368;6.782;2022-11-30T11:47:57;7.60;99.90
13616;DHT22;6879;51.368;6.782;2022-11-30T11:50:29;7.70;99.90
13616;DHT22;6879;51.368;6.782;2022-11-30T11:53:19;7.80;99.90
13616;DHT22;6879;51.368;6.782;2022-11-30T11:55:56;7.80;99.90
13616;DHT22;6879;51.368;6.782;2022-11-30T11:58:34;7.80;99.90
13616;DHT22;6879;51.368;6.782;2022-11-30T12:01:11;7.70;99.90
13616;DHT22;6879;51.368;6.782;2022-11-30T12:04:21;7.60;99.90
13616;DHT22;6879;51.368;6.782;2022-11-30T12:06:57;7.70;99.90
13616;DHT22;6879;51.368;6.782;2022-11-30T12:09:32;7.70;99.90
13616;DHT22;6879;51.368;6.782;2022-11-30T12:12:04;7.70;99.90
13616;DHT22;6879;51.368;6.782;2022-11-30T12:14:33;7.70;99.90
13616;DHT22;6879;51.368;6.782;2022-11-30T12:17:12;7.70;99.90
13616;DHT22;6879;51.368;6.782;2022-11-30T12:19:52;7.80;99.90
13616;DHT22;6879;51.368;6.782;2022-11-30T12:22:38;7.80;99.90
13616;DHT22;6879;51.368;6.782;2022-11-30T12:25:20;7.70;99.90
13616;DHT22;6879;51.368;6.782;2022-11-30T12:27:58;7.80;99.90
13616;DHT22;6879;51.368;6.782;2022-11-30T12:30:38;7.80;99.90
13616;DHT22;6879;51.368;6.782;2022-11-30T12:33:20;7.80;99.90
13616;DHT22;6879;51.368;6.782;2022-11-30T12:35:58;7.90;99.90
13616;DHT22;6879;51.368;6.782;2022-11-30T12:38:36;7.80;99.90
13616;DHT22;6879;51.368;6.782;2022-11-30T12:44:06;7.90;99.90
13616;DHT22;6879;51.368;6.782;2022-11-30T12:46:43;7.90;99.90
13616;DHT22;6879;51.368;6.782;2022-11-30T12:49:25;8.00;99.90
13616;DHT22;6879;51.368;6.782;2022-11-30T12:52:02;8.00;99.90
13616;DHT22;6879;51.368;6.782;2022-11-30T12:54:41;7.90;99.90
13616;DHT22;6879;51.368;6.782;2022-11-30T12:57:16;7.90;99.90
13616;DHT22;6879;51.368;6.782;2022-11-30T13:00:11;7.90;99.90
13616;DHT22;6879;51.368;6.782;2022-11-30T13:02:59;7.80;99.90
13616;DHT22;6879;51.368;6.782;2022-11-30T13:05:34;7.80;99.90
13616;DHT22;6879;51.368;6.782;2022-11-30T13:08:11;7.70;99.90
13616;DHT22;6879;51.368;6.782;2022-11-30T13:10:44;7.70;99.90
13616;DHT22;6879;51.368;6.782;2022-11-30T13:13:15;7.70;99.90
13616;DHT22;6879;51.368;6.782;2022-11-30T13:15:51;7.70;99.90
13616;DHT22;6879;51.368;6.782;2022-11-30T13:18:31;7.70;99.90
13616;DHT22;6879;51.368;6.782;2022-11-30T13:30:15;7.80;99.90
13616;DHT22;6879;51.368;6.782;2022-11-30T13:32:50;7.80;99.90
13616;DHT22;6879;51.368;6.782;2022-11-30T13:35:40;7.80;99.90
13616;DHT22;6879;51.368;6.782;2022-11-30T13:38:17;7.80;99.90
13616;DHT22;6879;51.368;6.782;2022-11-30T13:41:04;7.70;99.90
13616;DHT22;6879;51.368;6.782;2022-11-30T13:43:36;7.70;99.90
13616;DHT22;6879;51.368;6.782;2022-11-30T13:46:13;7.70;99.90
13616;DHT22;6879;51.368;6.782;2022-11-30T13:48:45;7.80;99.90
13616;DHT22;6879;51.368;6.782;2022-11-30T13:51:34;7.70;99.90
13616;DHT22;6879;51.368;6.782;2022-11-30T13:54:36;7.70;99.90
13616;DHT22;6879;51.368;6.782;2022-11-30T13:57:16;7.80;99.90
13616;DHT22;6879;51.368;6.782;2022-11-30T13:59:47;7.70;99.90
13616;DHT22;6879;51.368;6.782;2022-11-30T14:05:39;7.60;99.90
13616;DHT22;6879;51.368;6.782;2022-11-30T14:08:36;7.60;99.90
13616;DHT22;6879;51.368;6.782;2022-11-30T14:11:37;7.60;99.90
13616;DHT22;6879;51.368;6.782;2022-11-30T14:14:45;7.60;99.90
13616;DHT22;6879;51.368;6.782;2022-11-30T14:17:17;7.60;99.90
13616;DHT22;6879;51.368;6.782;2022-11-30T14:19:49;7.60;99.90
13616;DHT22;6879;51.368;6.782;2022-11-30T14:22:21;7.60;99.90
13616;DHT22;6879;51.368;6.782;2022-11-30T14:24:52;7.60;99.90
13616;DHT22;6879;51.368;6.782;2022-11-30T14:27:24;7.60;99.90
13616;DHT22;6879;51.368;6.782;2022-11-30T14:30:00;7.60;99.90
13616;DHT22;6879;51.368;6.782;2022-11-30T14:32:35;7.60;99.90
13616;DHT22;6879;51.368;6.782;2022-11-30T14:35:11;7.60;99.90
13616;DHT22;6879;51.368;6.782;2022-11-30T14:37:45;7.60;99.90
13616;DHT22;6879;51.368;6.782;2022-11-30T14:40:21;7.50;99.90
13616;DHT22;6879;51.368;6.782;2022-11-30T14:42:51;7.50;99.90
13616;DHT22;6879;51.368;6.782;2022-11-30T14:45:22;7.50;99.90
13616;DHT22;6879;51.368;6.782;2022-11-30T14:48:03;7.50;99.90
13616;DHT22;6879;51.368;6.782;2022-11-30T14:50:34;7.50;99.90
13616;DHT22;6879;51.368;6.782;2022-11-30T14:53:20;7.50;99.90
13616;DHT22;6879;51.368;6.782;2022-11-30T14:55:54;7.50;99.90
13616;DHT22;6879;51.368;6.782;2022-11-30T14:58:32;7.40;99.90
13616;DHT22;6879;51.368;6.782;2022-11-30T15:01:15;7.40;99.90
13616;DHT22;6879;51.368;6.782;2022-11-30T15:03:46;7.40;99.90
13616;DHT22;6879;51.368;6.782;2022-11-30T15:06:18;7.40;99.90
13616;DHT22;6879;51.368;6.782;2022-11-30T15:08:54;7.40;99.90
13616;DHT22;6879;51.368;6.782;2022-11-30T15:11:25;7.30;99.90
13616;DHT22;6879;51.368;6.782;2022-11-30T15:14:08;7.40;99.90
13616;DHT22;6879;51.368;6.782;2022-11-30T15:16:45;7.40;99.90
13616;DHT22;6879;51.368;6.782;2022-11-30T15:19:21;7.40;99.90
13616;DHT22;6879;51.368;6.782;2022-11-30T15:21:51;7.40;99.90
13616;DHT22;6879;51.368;6.782;2022-11-30T15:24:26;7.40;99.90
13616;DHT22;6879;51.368;6.782;2022-11-30T15:26:59;7.30;99.90
13616;DHT22;6879;51.368;6.782;2022-11-30T15:29:39;7.40;99.90
13616;DHT22;6879;51.368;6.782;2022-11-30T15:32:15;7.40;99.90
13616;DHT22;6879;51.368;6.782;2022-11-30T15:34:50;7.40;99.90
13616;DHT22;6879;51.368;6.782;2022-11-30T15:37:29;7.40;99.90
13616;DHT22;6879;51.368;6.782;2022-11-30T15:40:29;7.40;99.90
13616;DHT22;6879;51.368;6.782;2022-11-30T15:43:01;7.40;99.90
13616;DHT22;6879;51.368;6.782;2022-11-30T15:45:32;7.30;99.90
13616;DHT22;6879;51.368;6.782;2022-11-30T15:48:25;7.30;99.90
13616;DHT22;6879;51.368;6.782;2022-11-30T15:50:55;7.30;99.90
13616;DHT22;6879;51.368;6.782;2022-11-30T15:53:33;7.30;99.90
13616;DHT22;6879;51.368;6.782;2022-11-30T15:56:05;7.30;99.90
13616;DHT22;6879;51.368;6.782;2022-11-30T15:58:37;7.40;99.90
13616;DHT22;6879;51.368;6.782;2022-11-30T16:01:14;7.30;99.90
13616;DHT22;6879;51.368;6.782;2022-11-30T16:04:03;7.30;99.90
13616;DHT22;6879;51.368;6.782;2022-11-30T16:06:45;7.30;99.90
13616;DHT22;6879;51.368;6.782;2022-11-30T16:09:19;7.40;99.90
13616;DHT22;6879;51.368;6.782;2022-11-30T16:11:53;7.40;99.90
13616;DHT22;6879;51.368;6.782;2022-11-30T16:14:23;7.30;99.90
13616;DHT22;6879;51.368;6.782;2022-11-30T16:16:53;7.30;99.90
13616;DHT22;6879;51.368;6.782;2022-11-30T16:19:23;7.30;99.90
13616;DHT22;6879;51.368;6.782;2022-11-30T16:22:08;7.30;99.90
13616;DHT22;6879;51.368;6.782;2022-11-30T16:24:37;7.30;99.90
13616;DHT22;6879;51.368;6.782;2022-11-30T16:27:17;7.30;99.90
13616;DHT22;6879;51.368;6.782;2022-11-30T16:29:46;7.20;99.90
13616;DHT22;6879;51.368;6.782;2022-11-30T16:32:18;7.30;99.90
13616;DHT22;6879;51.368;6.782;2022-11-30T16:34:49;7.20;99.90
13616;DHT22;6879;51.368;6.782;2022-11-30T16:37:24;7.20;99.90
13616;DHT22;6879;51.368;6.782;2022-11-30T16:40:04;7.20;99.90
13616;DHT22;6879;51.368;6.782;2022-11-30T16:42:42;7.20;99.90
13616;DHT22;6879;51.368;6.782;2022-11-30T16:45:25;7.20;99.90
13616;DHT22;6879;51.368;6.782;2022-11-30T16:48:03;7.20;99.90
13616;DHT22;6879;51.368;6.782;2022-11-30T16:50:44;7.30;99.90
13616;DHT22;6879;51.368;6.782;2022-11-30T16:53:17;7.30;99.90
13616;DHT22;6879;51.368;6.782;2022-11-30T16:55:54;7.20;99.90
13616;DHT22;6879;51.368;6.782;2022-11-30T16:58:27;7.20;99.90
13616;DHT22;6879;51.368;6.782;2022-11-30T17:00:59;7.20;99.90
13616;DHT22;6879;51.368;6.782;2022-11-30T17:03:32;7.20;99.90
13616;DHT22;6879;51.368;6.782;2022-11-30T17:06:17;7.20;99.90
13616;DHT22;6879;51.368;6.782;2022-11-30T17:08:47;7.20;99.90